sensor_id;sensor_type;location;lat;lon;timestamp;P1;durP1;ratioP1;P2;durP2;ratioP2
53533;SDS011;39421;53.204;6.568;2023-04-07T00:00:33;24.27;;;15.60;;
53533;SDS011;39421;53.204;6.568;2023-04-07T00:02:59;23.73;;;15.95;;
53533;SDS011;39421;53.204;6.568;2023-04-07T00:05:26;24.08;;;16.52;;
53533;SDS011;39421;53.204;6.568;2023-04-07T00:07:52;24.25;;;16.48;;
53533;SDS011;39421;53.204;6.568;2023-04-07T00:10:18;24.75;;;16.67;;
53533;SDS011;39421;53.204;6.568;2023-04-07T00:12:44;24.47;;;16.43;;
53533;SDS011;39421;53.204;6.568;2023-04-07T00:15:12;26.10;;;17.33;;
53533;SDS011;39421;53.204;6.568;2023-04-07T00:17:44;26.45;;;17.17;;
53533;SDS011;39421;53.204;6.568;2023-04-07T00:20:10;26.63;;;17.55;;
53533;SDS011;39421;53.204;6.568;2023-04-07T00:22:36;25.85;;;17.15;;
53533;SDS011;39421;53.204;6.568;2023-04-07T00:25:02;27.38;;;17.85;;
53533;SDS011;39421;53.204;6.568;2023-04-07T00:27:28;27.98;;;18.00;;
53533;SDS011;39421;53.204;6.568;2023-04-07T00:29:55;26.88;;;18.05;;
53533;SDS011;39421;53.204;6.568;2023-04-07T00:32:22;27.63;;;18.60;;
53533;SDS011;39421;53.204;6.568;2023-04-07T00:34:48;27.70;;;17.30;;
53533;SDS011;39421;53.204;6.568;2023-04-07T00:37:15;27.23;;;18.35;;
53533;SDS011;39421;53.204;6.568;2023-04-07T00:39:42;27.40;;;18.27;;
53533;SDS011;39421;53.204;6.568;2023-04-07T00:42:08;27.23;;;17.93;;
53533;SDS011;39421;53.204;6.568;2023-04-07T00:44:35;28.50;;;19.08;;
53533;SDS011;39421;53.204;6.568;2023-04-07T00:47:01;28.08;;;18.58;;
53533;SDS011;39421;53.204;6.568;2023-04-07T00:49:27;28.93;;;18.73;;
53533;SDS011;39421;53.204;6.568;2023-04-07T00:51:54;29.35;;;18.33;;
53533;SDS011;39421;53.204;6.568;2023-04-07T00:54:22;30.50;;;19.58;;
53533;SDS011;39421;53.204;6.568;2023-04-07T00:56:49;27.90;;;18.50;;
53533;SDS011;39421;53.204;6.568;2023-04-07T00:59:15;28.92;;;19.20;;
53533;SDS011;39421;53.204;6.568;2023-04-07T01:02:01;29.65;;;19.20;;
53533;SDS011;39421;53.204;6.568;2023-04-07T01:04:31;29.27;;;19.03;;
53533;SDS011;39421;53.204;6.568;2023-04-07T01:07:23;30.63;;;19.65;;
53533;SDS011;39421;53.204;6.568;2023-04-07T01:09:51;30.10;;;19.73;;
53533;SDS011;39421;53.204;6.568;2023-04-07T01:15:11;29.67;;;19.07;;
53533;SDS011;39421;53.204;6.568;2023-04-07T01:17:47;30.45;;;20.08;;
53533;SDS011;39421;53.204;6.568;2023-04-07T01:20:18;31.30;;;20.17;;
53533;SDS011;39421;53.204;6.568;2023-04-07T01:22:46;31.60;;;20.60;;
53533;SDS011;39421;53.204;6.568;2023-04-07T01:30:40;30.80;;;20.35;;
53533;SDS011;39421;53.204;6.568;2023-04-07T01:33:08;33.13;;;21.40;;
53533;SDS011;39421;53.204;6.568;2023-04-07T01:35:36;32.95;;;21.08;;
53533;SDS011;39421;53.204;6.568;2023-04-07T01:38:02;32.17;;;20.80;;
53533;SDS011;39421;53.204;6.568;2023-04-07T01:40:29;34.17;;;22.23;;
53533;SDS011;39421;53.204;6.568;2023-04-07T01:42:57;35.78;;;22.17;;
53533;SDS011;39421;53.204;6.568;2023-04-07T01:45:25;34.03;;;21.48;;
53533;SDS011;39421;53.204;6.568;2023-04-07T01:47:51;33.42;;;21.30;;
53533;SDS011;39421;53.204;6.568;2023-04-07T01:50:18;34.88;;;21.88;;
53533;SDS011;39421;53.204;6.568;2023-04-07T01:52:45;34.63;;;21.47;;
53533;SDS011;39421;53.204;6.568;2023-04-07T01:55:12;34.63;;;22.05;;
53533;SDS011;39421;53.204;6.568;2023-04-07T01:57:38;33.00;;;21.20;;
53533;SDS011;39421;53.204;6.568;2023-04-07T02:00:07;36.70;;;22.92;;
53533;SDS011;39421;53.204;6.568;2023-04-07T02:02:35;34.28;;;21.95;;
53533;SDS011;39421;53.204;6.568;2023-04-07T02:05:06;37.53;;;23.27;;
53533;SDS011;39421;53.204;6.568;2023-04-07T02:07:38;33.50;;;21.20;;
53533;SDS011;39421;53.204;6.568;2023-04-07T02:10:09;34.70;;;21.80;;
53533;SDS011;39421;53.204;6.568;2023-04-07T02:12:36;32.85;;;21.88;;
53533;SDS011;39421;53.204;6.568;2023-04-07T02:15:04;34.20;;;21.73;;
53533;SDS011;39421;53.204;6.568;2023-04-07T02:17:31;33.83;;;21.10;;
53533;SDS011;39421;53.204;6.568;2023-04-07T02:20:00;33.63;;;21.38;;
53533;SDS011;39421;53.204;6.568;2023-04-07T02:22:30;37.25;;;22.52;;
53533;SDS011;39421;53.204;6.568;2023-04-07T02:24:56;35.75;;;22.23;;
53533;SDS011;39421;53.204;6.568;2023-04-07T02:27:28;33.90;;;21.23;;
53533;SDS011;39421;53.204;6.568;2023-04-07T02:29:55;34.15;;;21.30;;
53533;SDS011;39421;53.204;6.568;2023-04-07T02:32:21;36.08;;;21.83;;
53533;SDS011;39421;53.204;6.568;2023-04-07T02:34:47;34.85;;;21.92;;
53533;SDS011;39421;53.204;6.568;2023-04-07T02:37:16;34.65;;;22.25;;
53533;SDS011;39421;53.204;6.568;2023-04-07T02:39:45;34.57;;;21.77;;
53533;SDS011;39421;53.204;6.568;2023-04-07T02:42:11;36.72;;;22.52;;
53533;SDS011;39421;53.204;6.568;2023-04-07T02:44:37;36.53;;;22.63;;
53533;SDS011;39421;53.204;6.568;2023-04-07T02:47:10;34.85;;;21.75;;
53533;SDS011;39421;53.204;6.568;2023-04-07T02:49:36;35.00;;;21.10;;
53533;SDS011;39421;53.204;6.568;2023-04-07T02:52:03;35.67;;;22.02;;
53533;SDS011;39421;53.204;6.568;2023-04-07T02:54:29;36.75;;;23.33;;
53533;SDS011;39421;53.204;6.568;2023-04-07T02:56:55;35.28;;;22.15;;
53533;SDS011;39421;53.204;6.568;2023-04-07T02:59:21;35.90;;;22.38;;
53533;SDS011;39421;53.204;6.568;2023-04-07T03:01:48;35.10;;;21.93;;
53533;SDS011;39421;53.204;6.568;2023-04-07T03:04:14;36.27;;;23.20;;
53533;SDS011;39421;53.204;6.568;2023-04-07T03:06:40;33.40;;;22.10;;
53533;SDS011;39421;53.204;6.568;2023-04-07T03:09:06;33.53;;;22.38;;
53533;SDS011;39421;53.204;6.568;2023-04-07T03:11:32;35.58;;;22.42;;
53533;SDS011;39421;53.204;6.568;2023-04-07T03:13:58;35.00;;;22.73;;
53533;SDS011;39421;53.204;6.568;2023-04-07T03:16:25;33.40;;;21.48;;
53533;SDS011;39421;53.204;6.568;2023-04-07T03:18:51;34.67;;;22.50;;
53533;SDS011;39421;53.204;6.568;2023-04-07T03:21:17;32.83;;;21.42;;
53533;SDS011;39421;53.204;6.568;2023-04-07T03:23:43;35.50;;;22.67;;
53533;SDS011;39421;53.204;6.568;2023-04-07T03:26:09;33.72;;;22.45;;
53533;SDS011;39421;53.204;6.568;2023-04-07T03:28:35;34.53;;;22.45;;
53533;SDS011;39421;53.204;6.568;2023-04-07T03:31:01;33.57;;;21.77;;
53533;SDS011;39421;53.204;6.568;2023-04-07T03:33:28;35.60;;;22.40;;
53533;SDS011;39421;53.204;6.568;2023-04-07T03:35:54;33.75;;;21.33;;
53533;SDS011;39421;53.204;6.568;2023-04-07T03:38:20;33.00;;;21.90;;
53533;SDS011;39421;53.204;6.568;2023-04-07T03:40:46;32.15;;;20.77;;
53533;SDS011;39421;53.204;6.568;2023-04-07T03:43:12;31.55;;;20.73;;
53533;SDS011;39421;53.204;6.568;2023-04-07T03:45:40;33.80;;;20.98;;
53533;SDS011;39421;53.204;6.568;2023-04-07T03:48:06;29.85;;;19.65;;
53533;SDS011;39421;53.204;6.568;2023-04-07T03:50:39;31.10;;;20.70;;
53533;SDS011;39421;53.204;6.568;2023-04-07T03:53:05;32.17;;;20.88;;
53533;SDS011;39421;53.204;6.568;2023-04-07T03:55:32;29.50;;;19.50;;
53533;SDS011;39421;53.204;6.568;2023-04-07T03:57:58;30.58;;;19.90;;
53533;SDS011;39421;53.204;6.568;2023-04-07T04:00:25;31.83;;;19.77;;
53533;SDS011;39421;53.204;6.568;2023-04-07T04:02:51;30.27;;;19.73;;
53533;SDS011;39421;53.204;6.568;2023-04-07T04:05:17;29.75;;;19.48;;
53533;SDS011;39421;53.204;6.568;2023-04-07T04:07:43;30.00;;;19.58;;
53533;SDS011;39421;53.204;6.568;2023-04-07T04:10:09;30.10;;;19.35;;
53533;SDS011;39421;53.204;6.568;2023-04-07T04:12:36;28.63;;;18.75;;
53533;SDS011;39421;53.204;6.568;2023-04-07T04:15:02;29.03;;;19.47;;
53533;SDS011;39421;53.204;6.568;2023-04-07T04:17:28;32.65;;;20.45;;
53533;SDS011;39421;53.204;6.568;2023-04-07T04:19:54;29.63;;;19.77;;
53533;SDS011;39421;53.204;6.568;2023-04-07T04:22:20;30.13;;;19.30;;
53533;SDS011;39421;53.204;6.568;2023-04-07T04:24:46;29.42;;;19.55;;
53533;SDS011;39421;53.204;6.568;2023-04-07T04:27:12;30.80;;;19.00;;
53533;SDS011;39421;53.204;6.568;2023-04-07T04:29:38;30.25;;;19.38;;
53533;SDS011;39421;53.204;6.568;2023-04-07T04:32:05;29.17;;;19.13;;
53533;SDS011;39421;53.204;6.568;2023-04-07T04:34:31;29.67;;;19.55;;
53533;SDS011;39421;53.204;6.568;2023-04-07T04:36:57;28.13;;;18.83;;
53533;SDS011;39421;53.204;6.568;2023-04-07T04:39:23;28.77;;;18.43;;
53533;SDS011;39421;53.204;6.568;2023-04-07T04:41:49;26.90;;;18.08;;
53533;SDS011;39421;53.204;6.568;2023-04-07T04:44:15;28.55;;;18.30;;
53533;SDS011;39421;53.204;6.568;2023-04-07T04:46:41;28.08;;;18.25;;
53533;SDS011;39421;53.204;6.568;2023-04-07T04:49:08;26.05;;;17.30;;
53533;SDS011;39421;53.204;6.568;2023-04-07T04:51:34;26.55;;;17.92;;
53533;SDS011;39421;53.204;6.568;2023-04-07T04:54:00;27.20;;;17.70;;
53533;SDS011;39421;53.204;6.568;2023-04-07T04:56:27;26.58;;;17.73;;
53533;SDS011;39421;53.204;6.568;2023-04-07T04:58:53;26.45;;;17.48;;
53533;SDS011;39421;53.204;6.568;2023-04-07T05:01:20;24.80;;;16.95;;
53533;SDS011;39421;53.204;6.568;2023-04-07T05:03:46;26.02;;;17.23;;
53533;SDS011;39421;53.204;6.568;2023-04-07T05:06:12;24.85;;;17.02;;
53533;SDS011;39421;53.204;6.568;2023-04-07T05:08:38;24.47;;;16.40;;
53533;SDS011;39421;53.204;6.568;2023-04-07T05:11:04;25.17;;;16.48;;
53533;SDS011;39421;53.204;6.568;2023-04-07T05:13:30;24.35;;;16.30;;
53533;SDS011;39421;53.204;6.568;2023-04-07T05:15:56;25.58;;;17.02;;
53533;SDS011;39421;53.204;6.568;2023-04-07T05:18:22;24.98;;;16.40;;
53533;SDS011;39421;53.204;6.568;2023-04-07T05:20:48;25.17;;;16.40;;
53533;SDS011;39421;53.204;6.568;2023-04-07T05:23:15;23.13;;;15.55;;
53533;SDS011;39421;53.204;6.568;2023-04-07T05:25:41;26.20;;;17.23;;
53533;SDS011;39421;53.204;6.568;2023-04-07T05:28:07;25.38;;;16.17;;
53533;SDS011;39421;53.204;6.568;2023-04-07T05:30:33;24.70;;;16.70;;
53533;SDS011;39421;53.204;6.568;2023-04-07T05:32:59;25.77;;;16.37;;
53533;SDS011;39421;53.204;6.568;2023-04-07T05:35:25;26.05;;;16.77;;
53533;SDS011;39421;53.204;6.568;2023-04-07T05:37:51;25.07;;;16.40;;
53533;SDS011;39421;53.204;6.568;2023-04-07T05:40:17;27.45;;;16.52;;
53533;SDS011;39421;53.204;6.568;2023-04-07T05:42:44;26.02;;;16.63;;
53533;SDS011;39421;53.204;6.568;2023-04-07T05:45:10;25.50;;;16.52;;
53533;SDS011;39421;53.204;6.568;2023-04-07T05:47:36;26.23;;;16.67;;
53533;SDS011;39421;53.204;6.568;2023-04-07T05:50:02;25.58;;;17.00;;
53533;SDS011;39421;53.204;6.568;2023-04-07T05:52:29;24.38;;;16.60;;
53533;SDS011;39421;53.204;6.568;2023-04-07T05:54:55;25.08;;;16.60;;
53533;SDS011;39421;53.204;6.568;2023-04-07T05:57:21;26.43;;;16.77;;
53533;SDS011;39421;53.204;6.568;2023-04-07T05:59:47;26.38;;;16.98;;
53533;SDS011;39421;53.204;6.568;2023-04-07T06:02:13;25.48;;;16.65;;
53533;SDS011;39421;53.204;6.568;2023-04-07T06:04:40;24.05;;;16.15;;
53533;SDS011;39421;53.204;6.568;2023-04-07T06:07:06;24.27;;;16.17;;
53533;SDS011;39421;53.204;6.568;2023-04-07T06:09:32;24.63;;;15.83;;
53533;SDS011;39421;53.204;6.568;2023-04-07T06:11:58;24.98;;;16.77;;
53533;SDS011;39421;53.204;6.568;2023-04-07T06:14:28;27.35;;;17.48;;
53533;SDS011;39421;53.204;6.568;2023-04-07T06:16:55;24.17;;;16.10;;
53533;SDS011;39421;53.204;6.568;2023-04-07T06:19:21;25.88;;;16.67;;
53533;SDS011;39421;53.204;6.568;2023-04-07T06:21:47;25.60;;;16.88;;
53533;SDS011;39421;53.204;6.568;2023-04-07T06:24:13;25.10;;;16.75;;
53533;SDS011;39421;53.204;6.568;2023-04-07T06:26:39;24.05;;;16.95;;
53533;SDS011;39421;53.204;6.568;2023-04-07T06:29:05;26.97;;;16.93;;
53533;SDS011;39421;53.204;6.568;2023-04-07T06:31:31;26.15;;;16.40;;
53533;SDS011;39421;53.204;6.568;2023-04-07T06:33:58;25.85;;;17.20;;
53533;SDS011;39421;53.204;6.568;2023-04-07T06:36:24;24.83;;;16.45;;
53533;SDS011;39421;53.204;6.568;2023-04-07T06:38:51;24.33;;;15.93;;
53533;SDS011;39421;53.204;6.568;2023-04-07T06:41:17;25.20;;;16.63;;
53533;SDS011;39421;53.204;6.568;2023-04-07T06:43:45;25.88;;;15.80;;
53533;SDS011;39421;53.204;6.568;2023-04-07T06:46:12;24.90;;;16.48;;
53533;SDS011;39421;53.204;6.568;2023-04-07T06:48:38;25.05;;;16.63;;
53533;SDS011;39421;53.204;6.568;2023-04-07T06:51:04;23.50;;;15.53;;
53533;SDS011;39421;53.204;6.568;2023-04-07T06:53:30;24.40;;;16.35;;
53533;SDS011;39421;53.204;6.568;2023-04-07T06:56:06;24.38;;;15.43;;
53533;SDS011;39421;53.204;6.568;2023-04-07T06:58:32;25.38;;;16.42;;
53533;SDS011;39421;53.204;6.568;2023-04-07T07:00:59;24.83;;;16.25;;
53533;SDS011;39421;53.204;6.568;2023-04-07T07:03:25;25.15;;;16.10;;
53533;SDS011;39421;53.204;6.568;2023-04-07T07:05:54;25.45;;;16.65;;
53533;SDS011;39421;53.204;6.568;2023-04-07T07:08:21;23.67;;;15.52;;
53533;SDS011;39421;53.204;6.568;2023-04-07T07:10:47;24.20;;;16.10;;
53533;SDS011;39421;53.204;6.568;2023-04-07T07:13:13;24.45;;;16.42;;
53533;SDS011;39421;53.204;6.568;2023-04-07T07:15:40;23.67;;;16.02;;
53533;SDS011;39421;53.204;6.568;2023-04-07T07:18:06;25.13;;;16.38;;
53533;SDS011;39421;53.204;6.568;2023-04-07T07:20:32;24.52;;;16.08;;
53533;SDS011;39421;53.204;6.568;2023-04-07T07:22:58;23.97;;;16.17;;
53533;SDS011;39421;53.204;6.568;2023-04-07T07:25:24;24.63;;;16.38;;
53533;SDS011;39421;53.204;6.568;2023-04-07T07:27:51;23.75;;;16.20;;
53533;SDS011;39421;53.204;6.568;2023-04-07T07:30:21;24.80;;;16.45;;
53533;SDS011;39421;53.204;6.568;2023-04-07T07:32:47;25.35;;;16.27;;
53533;SDS011;39421;53.204;6.568;2023-04-07T07:35:14;22.67;;;15.03;;
53533;SDS011;39421;53.204;6.568;2023-04-07T07:37:40;22.80;;;15.75;;
53533;SDS011;39421;53.204;6.568;2023-04-07T07:40:08;23.17;;;15.82;;
53533;SDS011;39421;53.204;6.568;2023-04-07T07:42:35;22.92;;;15.18;;
53533;SDS011;39421;53.204;6.568;2023-04-07T07:45:01;22.65;;;14.63;;
53533;SDS011;39421;53.204;6.568;2023-04-07T07:47:28;21.73;;;14.48;;
53533;SDS011;39421;53.204;6.568;2023-04-07T07:49:54;21.55;;;14.07;;
53533;SDS011;39421;53.204;6.568;2023-04-07T07:52:20;22.90;;;14.95;;
53533;SDS011;39421;53.204;6.568;2023-04-07T07:54:47;22.52;;;15.18;;
53533;SDS011;39421;53.204;6.568;2023-04-07T07:57:13;20.85;;;13.80;;
53533;SDS011;39421;53.204;6.568;2023-04-07T07:59:39;22.23;;;14.13;;
53533;SDS011;39421;53.204;6.568;2023-04-07T08:02:06;20.83;;;14.10;;
53533;SDS011;39421;53.204;6.568;2023-04-07T08:04:34;21.10;;;14.73;;
53533;SDS011;39421;53.204;6.568;2023-04-07T08:07:01;21.73;;;14.07;;
53533;SDS011;39421;53.204;6.568;2023-04-07T08:09:27;19.88;;;13.88;;
53533;SDS011;39421;53.204;6.568;2023-04-07T08:11:53;20.65;;;13.73;;
53533;SDS011;39421;53.204;6.568;2023-04-07T08:14:19;21.45;;;14.40;;
53533;SDS011;39421;53.204;6.568;2023-04-07T08:16:45;22.27;;;15.13;;
53533;SDS011;39421;53.204;6.568;2023-04-07T08:19:12;22.48;;;14.55;;
53533;SDS011;39421;53.204;6.568;2023-04-07T08:21:38;20.80;;;13.88;;
53533;SDS011;39421;53.204;6.568;2023-04-07T08:24:05;21.38;;;14.23;;
53533;SDS011;39421;53.204;6.568;2023-04-07T08:26:31;20.77;;;14.15;;
53533;SDS011;39421;53.204;6.568;2023-04-07T08:28:57;19.80;;;13.88;;
53533;SDS011;39421;53.204;6.568;2023-04-07T08:31:24;20.20;;;13.50;;
53533;SDS011;39421;53.204;6.568;2023-04-07T08:33:50;21.67;;;13.55;;
53533;SDS011;39421;53.204;6.568;2023-04-07T08:36:25;20.80;;;13.80;;
53533;SDS011;39421;53.204;6.568;2023-04-07T08:38:52;21.75;;;14.63;;
53533;SDS011;39421;53.204;6.568;2023-04-07T08:41:37;21.58;;;14.50;;
53533;SDS011;39421;53.204;6.568;2023-04-07T08:44:04;22.17;;;15.10;;
53533;SDS011;39421;53.204;6.568;2023-04-07T08:46:32;23.73;;;15.02;;
53533;SDS011;39421;53.204;6.568;2023-04-07T08:48:58;22.98;;;14.95;;
53533;SDS011;39421;53.204;6.568;2023-04-07T08:51:29;25.02;;;15.73;;
53533;SDS011;39421;53.204;6.568;2023-04-07T08:54:08;24.35;;;16.35;;
53533;SDS011;39421;53.204;6.568;2023-04-07T08:56:38;23.33;;;16.13;;
53533;SDS011;39421;53.204;6.568;2023-04-07T08:59:05;25.08;;;16.95;;
53533;SDS011;39421;53.204;6.568;2023-04-07T09:01:31;25.20;;;17.08;;
53533;SDS011;39421;53.204;6.568;2023-04-07T09:03:59;25.80;;;16.90;;
53533;SDS011;39421;53.204;6.568;2023-04-07T09:06:26;25.80;;;17.73;;
53533;SDS011;39421;53.204;6.568;2023-04-07T09:08:56;25.42;;;17.13;;
53533;SDS011;39421;53.204;6.568;2023-04-07T09:11:22;26.93;;;18.33;;
53533;SDS011;39421;53.204;6.568;2023-04-07T09:13:49;26.50;;;17.35;;
53533;SDS011;39421;53.204;6.568;2023-04-07T09:16:15;26.05;;;17.50;;
53533;SDS011;39421;53.204;6.568;2023-04-07T09:18:41;25.77;;;17.52;;
53533;SDS011;39421;53.204;6.568;2023-04-07T09:21:07;25.77;;;17.73;;
53533;SDS011;39421;53.204;6.568;2023-04-07T09:23:36;24.50;;;16.70;;
53533;SDS011;39421;53.204;6.568;2023-04-07T09:28:51;24.17;;;17.33;;
53533;SDS011;39421;53.204;6.568;2023-04-07T09:31:18;22.45;;;15.63;;
53533;SDS011;39421;53.204;6.568;2023-04-07T09:33:46;23.03;;;16.30;;
53533;SDS011;39421;53.204;6.568;2023-04-07T09:36:12;23.17;;;16.05;;
53533;SDS011;39421;53.204;6.568;2023-04-07T09:38:38;21.65;;;15.40;;
53533;SDS011;39421;53.204;6.568;2023-04-07T09:46:18;21.63;;;15.23;;
53533;SDS011;39421;53.204;6.568;2023-04-07T09:48:45;21.20;;;14.43;;
53533;SDS011;39421;53.204;6.568;2023-04-07T09:51:13;22.13;;;15.18;;
53533;SDS011;39421;53.204;6.568;2023-04-07T09:53:44;21.35;;;14.68;;
53533;SDS011;39421;53.204;6.568;2023-04-07T09:56:11;21.33;;;14.43;;
53533;SDS011;39421;53.204;6.568;2023-04-07T09:58:37;20.23;;;14.05;;
53533;SDS011;39421;53.204;6.568;2023-04-07T10:01:07;20.67;;;14.47;;
53533;SDS011;39421;53.204;6.568;2023-04-07T10:03:37;20.90;;;14.10;;
53533;SDS011;39421;53.204;6.568;2023-04-07T10:06:03;18.95;;;12.60;;
53533;SDS011;39421;53.204;6.568;2023-04-07T10:08:36;18.08;;;11.57;;
53533;SDS011;39421;53.204;6.568;2023-04-07T10:11:03;15.93;;;10.45;;
53533;SDS011;39421;53.204;6.568;2023-04-07T10:13:31;15.00;;;9.80;;
53533;SDS011;39421;53.204;6.568;2023-04-07T10:15:58;15.77;;;10.00;;
53533;SDS011;39421;53.204;6.568;2023-04-07T10:18:28;15.77;;;10.23;;
53533;SDS011;39421;53.204;6.568;2023-04-07T10:21:01;15.52;;;10.05;;
53533;SDS011;39421;53.204;6.568;2023-04-07T10:23:47;15.40;;;10.32;;
53533;SDS011;39421;53.204;6.568;2023-04-07T10:26:15;16.80;;;10.95;;
53533;SDS011;39421;53.204;6.568;2023-04-07T10:28:43;16.23;;;10.50;;
53533;SDS011;39421;53.204;6.568;2023-04-07T10:31:11;15.88;;;10.57;;
53533;SDS011;39421;53.204;6.568;2023-04-07T10:33:50;16.48;;;10.60;;
53533;SDS011;39421;53.204;6.568;2023-04-07T10:36:17;17.70;;;11.63;;
53533;SDS011;39421;53.204;6.568;2023-04-07T10:41:32;18.20;;;11.45;;
53533;SDS011;39421;53.204;6.568;2023-04-07T10:43:59;18.40;;;12.27;;
53533;SDS011;39421;53.204;6.568;2023-04-07T10:46:48;17.88;;;12.50;;
53533;SDS011;39421;53.204;6.568;2023-04-07T10:49:15;18.98;;;12.90;;
53533;SDS011;39421;53.204;6.568;2023-04-07T10:51:41;18.60;;;13.13;;
53533;SDS011;39421;53.204;6.568;2023-04-07T10:54:20;19.48;;;12.32;;
53533;SDS011;39421;53.204;6.568;2023-04-07T10:57:07;17.73;;;12.50;;
53533;SDS011;39421;53.204;6.568;2023-04-07T10:59:34;19.10;;;13.35;;
53533;SDS011;39421;53.204;6.568;2023-04-07T11:04:39;20.08;;;12.93;;
53533;SDS011;39421;53.204;6.568;2023-04-07T11:07:06;17.77;;;12.02;;
53533;SDS011;39421;53.204;6.568;2023-04-07T11:09:33;16.80;;;11.70;;
53533;SDS011;39421;53.204;6.568;2023-04-07T11:11:59;17.42;;;11.52;;
53533;SDS011;39421;53.204;6.568;2023-04-07T11:14:25;17.20;;;11.48;;
53533;SDS011;39421;53.204;6.568;2023-04-07T11:16:52;17.42;;;11.35;;
53533;SDS011;39421;53.204;6.568;2023-04-07T11:19:18;15.90;;;10.40;;
53533;SDS011;39421;53.204;6.568;2023-04-07T11:21:44;16.52;;;11.30;;
53533;SDS011;39421;53.204;6.568;2023-04-07T11:24:30;16.13;;;10.30;;
53533;SDS011;39421;53.204;6.568;2023-04-07T11:26:56;15.68;;;9.95;;
53533;SDS011;39421;53.204;6.568;2023-04-07T11:29:32;14.70;;;9.80;;
53533;SDS011;39421;53.204;6.568;2023-04-07T11:31:59;13.80;;;9.13;;
53533;SDS011;39421;53.204;6.568;2023-04-07T11:34:29;14.15;;;9.32;;
53533;SDS011;39421;53.204;6.568;2023-04-07T11:36:55;14.50;;;9.50;;
53533;SDS011;39421;53.204;6.568;2023-04-07T11:39:24;13.75;;;8.82;;
53533;SDS011;39421;53.204;6.568;2023-04-07T11:41:57;13.70;;;8.85;;
53533;SDS011;39421;53.204;6.568;2023-04-07T11:44:23;13.18;;;8.18;;
53533;SDS011;39421;53.204;6.568;2023-04-07T11:46:53;12.32;;;8.43;;
53533;SDS011;39421;53.204;6.568;2023-04-07T11:49:20;13.63;;;8.30;;
53533;SDS011;39421;53.204;6.568;2023-04-07T11:51:47;13.10;;;8.50;;
53533;SDS011;39421;53.204;6.568;2023-04-07T11:54:13;13.40;;;8.52;;
53533;SDS011;39421;53.204;6.568;2023-04-07T11:56:43;13.57;;;8.70;;
53533;SDS011;39421;53.204;6.568;2023-04-07T11:59:19;12.80;;;8.23;;
53533;SDS011;39421;53.204;6.568;2023-04-07T12:01:47;13.20;;;8.07;;
53533;SDS011;39421;53.204;6.568;2023-04-07T12:04:13;13.18;;;8.50;;
53533;SDS011;39421;53.204;6.568;2023-04-07T12:06:40;14.90;;;7.95;;
53533;SDS011;39421;53.204;6.568;2023-04-07T12:09:07;12.70;;;8.30;;
53533;SDS011;39421;53.204;6.568;2023-04-07T12:11:34;13.63;;;8.63;;
53533;SDS011;39421;53.204;6.568;2023-04-07T12:14:01;12.90;;;8.43;;
53533;SDS011;39421;53.204;6.568;2023-04-07T12:16:29;13.93;;;9.27;;
53533;SDS011;39421;53.204;6.568;2023-04-07T12:18:55;13.50;;;9.10;;
53533;SDS011;39421;53.204;6.568;2023-04-07T12:21:21;14.27;;;9.00;;
53533;SDS011;39421;53.204;6.568;2023-04-07T12:23:51;13.20;;;8.93;;
53533;SDS011;39421;53.204;6.568;2023-04-07T12:26:17;13.80;;;8.82;;
53533;SDS011;39421;53.204;6.568;2023-04-07T12:28:43;14.90;;;10.10;;
53533;SDS011;39421;53.204;6.568;2023-04-07T12:31:09;14.88;;;9.55;;
53533;SDS011;39421;53.204;6.568;2023-04-07T12:33:36;14.02;;;9.05;;
53533;SDS011;39421;53.204;6.568;2023-04-07T12:36:02;14.13;;;9.20;;
53533;SDS011;39421;53.204;6.568;2023-04-07T12:38:28;13.70;;;9.20;;
53533;SDS011;39421;53.204;6.568;2023-04-07T12:40:54;14.13;;;9.15;;
53533;SDS011;39421;53.204;6.568;2023-04-07T12:43:27;13.43;;;9.27;;
53533;SDS011;39421;53.204;6.568;2023-04-07T12:45:53;13.52;;;9.00;;
53533;SDS011;39421;53.204;6.568;2023-04-07T12:48:19;13.60;;;9.48;;
53533;SDS011;39421;53.204;6.568;2023-04-07T12:50:45;15.13;;;9.70;;
53533;SDS011;39421;53.204;6.568;2023-04-07T12:53:11;14.43;;;9.65;;
53533;SDS011;39421;53.204;6.568;2023-04-07T12:55:37;14.48;;;9.65;;
53533;SDS011;39421;53.204;6.568;2023-04-07T12:58:03;13.32;;;9.30;;
53533;SDS011;39421;53.204;6.568;2023-04-07T13:00:29;15.07;;;9.98;;
53533;SDS011;39421;53.204;6.568;2023-04-07T13:02:56;14.27;;;9.80;;
53533;SDS011;39421;53.204;6.568;2023-04-07T13:05:22;14.30;;;9.77;;
53533;SDS011;39421;53.204;6.568;2023-04-07T13:07:48;13.52;;;9.20;;
53533;SDS011;39421;53.204;6.568;2023-04-07T13:10:14;13.93;;;9.40;;
53533;SDS011;39421;53.204;6.568;2023-04-07T13:12:40;14.00;;;9.43;;
53533;SDS011;39421;53.204;6.568;2023-04-07T13:15:07;14.48;;;10.10;;
53533;SDS011;39421;53.204;6.568;2023-04-07T13:17:33;15.60;;;10.00;;
53533;SDS011;39421;53.204;6.568;2023-04-07T13:20:01;14.50;;;8.80;;
53533;SDS011;39421;53.204;6.568;2023-04-07T13:22:27;14.70;;;10.07;;
53533;SDS011;39421;53.204;6.568;2023-04-07T13:24:54;13.82;;;9.15;;
53533;SDS011;39421;53.204;6.568;2023-04-07T13:27:20;14.03;;;9.20;;
53533;SDS011;39421;53.204;6.568;2023-04-07T13:29:46;14.40;;;9.35;;
53533;SDS011;39421;53.204;6.568;2023-04-07T13:32:13;13.10;;;9.07;;
53533;SDS011;39421;53.204;6.568;2023-04-07T13:34:40;14.60;;;9.20;;
53533;SDS011;39421;53.204;6.568;2023-04-07T13:37:06;14.43;;;9.18;;
53533;SDS011;39421;53.204;6.568;2023-04-07T13:39:32;13.82;;;9.38;;
53533;SDS011;39421;53.204;6.568;2023-04-07T13:41:58;13.75;;;9.38;;
53533;SDS011;39421;53.204;6.568;2023-04-07T13:44:25;13.40;;;8.97;;
53533;SDS011;39421;53.204;6.568;2023-04-07T13:46:51;13.75;;;9.27;;
53533;SDS011;39421;53.204;6.568;2023-04-07T13:49:18;13.80;;;9.30;;
53533;SDS011;39421;53.204;6.568;2023-04-07T13:51:44;13.38;;;8.82;;
53533;SDS011;39421;53.204;6.568;2023-04-07T13:54:10;13.10;;;8.67;;
53533;SDS011;39421;53.204;6.568;2023-04-07T13:56:36;13.55;;;9.15;;
53533;SDS011;39421;53.204;6.568;2023-04-07T13:59:03;14.23;;;9.10;;
53533;SDS011;39421;53.204;6.568;2023-04-07T14:01:30;15.00;;;9.73;;
53533;SDS011;39421;53.204;6.568;2023-04-07T14:03:57;13.68;;;9.02;;
53533;SDS011;39421;53.204;6.568;2023-04-07T14:06:23;13.02;;;8.82;;
53533;SDS011;39421;53.204;6.568;2023-04-07T14:08:50;13.30;;;8.93;;
53533;SDS011;39421;53.204;6.568;2023-04-07T14:11:20;13.40;;;9.40;;
53533;SDS011;39421;53.204;6.568;2023-04-07T14:13:47;13.77;;;8.85;;
53533;SDS011;39421;53.204;6.568;2023-04-07T14:16:14;13.38;;;9.23;;
53533;SDS011;39421;53.204;6.568;2023-04-07T14:18:42;14.07;;;8.90;;
53533;SDS011;39421;53.204;6.568;2023-04-07T14:21:08;17.23;;;9.40;;
53533;SDS011;39421;53.204;6.568;2023-04-07T14:23:35;15.20;;;9.70;;
53533;SDS011;39421;53.204;6.568;2023-04-07T14:26:02;13.95;;;9.20;;
53533;SDS011;39421;53.204;6.568;2023-04-07T14:28:28;14.23;;;9.98;;
53533;SDS011;39421;53.204;6.568;2023-04-07T14:30:54;13.77;;;9.73;;
53533;SDS011;39421;53.204;6.568;2023-04-07T14:33:20;13.43;;;9.32;;
53533;SDS011;39421;53.204;6.568;2023-04-07T14:35:47;13.10;;;8.90;;
53533;SDS011;39421;53.204;6.568;2023-04-07T14:38:13;14.27;;;9.15;;
53533;SDS011;39421;53.204;6.568;2023-04-07T14:40:40;13.18;;;9.20;;
53533;SDS011;39421;53.204;6.568;2023-04-07T14:43:06;14.23;;;9.43;;
53533;SDS011;39421;53.204;6.568;2023-04-07T14:45:34;13.98;;;9.85;;